createdAt,value
2018-08-09T00:00:27.797Z,89.90
2018-08-09T00:02:57.009Z,90.30
2018-08-09T00:05:26.159Z,90.50
2018-08-09T00:07:55.308Z,90.80
2018-08-09T00:10:24.461Z,90.80
2018-08-09T00:12:53.594Z,90.70
2018-08-09T00:15:22.770Z,90.70
2018-08-09T00:17:51.880Z,90.80
2018-08-09T00:20:21.022Z,90.50
2018-08-09T00:22:50.161Z,90.70
2018-08-09T00:25:19.374Z,90.50
2018-08-09T00:27:48.501Z,90.80
2018-08-09T00:30:17.628Z,90.90
2018-08-09T00:32:46.747Z,90.80
2018-08-09T00:35:15.822Z,90.70
2018-08-09T00:37:44.947Z,90.90
2018-08-09T00:40:14.090Z,90.90
2018-08-09T00:42:43.257Z,90.90
2018-08-09T00:45:12.385Z,90.90
2018-08-09T00:47:41.539Z,90.70
2018-08-09T00:50:10.662Z,90.60
2018-08-09T00:52:39.796Z,90.50
2018-08-09T00:55:08.925Z,90.60
2018-08-09T00:57:38.061Z,90.80
2018-08-09T01:00:07.257Z,91.00
2018-08-09T01:02:36.449Z,90.60
2018-08-09T01:05:05.619Z,90.60
2018-08-09T01:07:34.778Z,90.70
2018-08-09T01:10:04.541Z,90.70
2018-08-09T01:12:33.738Z,90.70
2018-08-09T01:15:02.920Z,91.10
2018-08-09T01:17:32.031Z,91.00
2018-08-09T01:20:01.279Z,91.10
2018-08-09T01:22:30.400Z,91.20
2018-08-09T01:24:59.497Z,91.20
2018-08-09T01:27:28.695Z,90.80
2018-08-09T01:29:57.862Z,91.30
2018-08-09T01:32:27.113Z,91.30
2018-08-09T01:34:56.305Z,91.50
2018-08-09T01:37:25.464Z,91.60
2018-08-09T01:39:54.584Z,91.20
2018-08-09T01:42:34.977Z,91.20
2018-08-09T01:45:04.232Z,91.20
2018-08-09T01:47:33.381Z,91.40
2018-08-09T01:50:02.762Z,91.60
2018-08-09T01:52:32.026Z,91.80
2018-08-09T01:55:01.128Z,91.90
2018-08-09T01:57:30.671Z,91.90
2018-08-09T01:59:59.837Z,91.90
2018-08-09T02:02:28.925Z,91.70
2018-08-09T02:04:58.112Z,91.30
2018-08-09T02:07:27.211Z,91.50
2018-08-09T02:09:56.368Z,91.80
2018-08-09T02:12:25.473Z,92.00
2018-08-09T02:14:54.625Z,92.10
2018-08-09T02:17:23.737Z,92.30
2018-08-09T02:19:52.879Z,92.40
2018-08-09T02:22:22.001Z,92.80
2018-08-09T02:24:51.169Z,92.50
2018-08-09T02:27:20.291Z,92.50
2018-08-09T02:29:49.419Z,92.40
2018-08-09T02:32:18.593Z,92.30
2018-08-09T02:34:47.716Z,92.20
2018-08-09T02:37:16.857Z,92.40
2018-08-09T02:39:45.980Z,92.60
2018-08-09T02:42:15.093Z,92.70
2018-08-09T02:44:44.206Z,92.70
2018-08-09T02:47:13.334Z,92.80
2018-08-09T02:49:42.462Z,92.80
2018-08-09T02:52:11.582Z,92.90
2018-08-09T02:54:40.722Z,93.00
2018-08-09T02:57:09.820Z,93.00
2018-08-09T02:59:38.952Z,93.00
2018-08-09T03:02:08.084Z,93.20
2018-08-09T03:04:37.194Z,93.20
2018-08-09T03:07:06.884Z,93.30
2018-08-09T03:09:36.004Z,93.50
2018-08-09T03:12:05.185Z,93.50
2018-08-09T03:14:34.375Z,93.50
2018-08-09T03:17:03.497Z,93.70
2018-08-09T03:19:32.633Z,93.30
2018-08-09T03:22:01.726Z,93.10
2018-08-09T03:24:30.882Z,92.90
2018-08-09T03:27:00.015Z,93.00
2018-08-09T03:29:29.173Z,92.60
2018-08-09T03:31:58.331Z,92.50
2018-08-09T03:34:27.475Z,92.50
2018-08-09T03:36:56.668Z,92.60
2018-08-09T03:39:25.793Z,92.50
2018-08-09T03:41:54.911Z,92.50
2018-08-09T03:44:24.176Z,92.60
2018-08-09T03:46:53.301Z,92.80
2018-08-09T03:49:22.438Z,92.60
2018-08-09T03:51:51.550Z,92.90
2018-08-09T03:54:20.717Z,93.10
2018-08-09T03:56:49.854Z,92.90
2018-08-09T03:59:19.020Z,92.80
2018-08-09T04:01:48.142Z,93.10
2018-08-09T04:04:17.407Z,92.60
2018-08-09T04:06:46.518Z,93.00
2018-08-09T04:09:15.663Z,92.90
2018-08-09T04:11:44.933Z,92.90
2018-08-09T04:14:14.070Z,93.20
2018-08-09T04:16:43.253Z,93.10
2018-08-09T04:19:12.364Z,93.00
2018-08-09T04:21:41.495Z,93.10
2018-08-09T04:24:10.673Z,93.00
2018-08-09T04:26:39.852Z,93.30
2018-08-09T04:29:09.060Z,93.30
2018-08-09T04:31:38.222Z,93.30
2018-08-09T04:34:07.404Z,93.40
2018-08-09T04:36:36.569Z,93.40
2018-08-09T04:39:07.577Z,93.20
2018-08-09T04:41:36.764Z,93.20
2018-08-09T04:44:05.950Z,93.20
2018-08-09T04:46:35.121Z,93.00
2018-08-09T04:49:04.347Z,93.00
2018-08-09T04:51:33.534Z,93.10
2018-08-09T04:54:02.725Z,92.90
2018-08-09T04:56:31.905Z,92.80
2018-08-09T04:59:01.042Z,92.90
2018-08-09T05:01:30.253Z,92.70
2018-08-09T05:03:59.505Z,93.00
2018-08-09T05:06:28.648Z,93.10
2018-08-09T05:08:57.824Z,93.30
2018-08-09T05:11:27.004Z,93.60
2018-08-09T05:13:56.297Z,93.30
2018-08-09T05:16:25.594Z,92.90
2018-08-09T05:18:54.757Z,93.00
2018-08-09T05:21:23.906Z,92.80
2018-08-09T05:23:53.052Z,92.90
2018-08-09T05:26:22.230Z,93.00
2018-08-09T05:28:51.351Z,92.80
2018-08-09T05:31:20.523Z,93.00
2018-08-09T05:33:49.636Z,92.90
2018-08-09T05:36:18.809Z,92.80
2018-08-09T05:38:48.324Z,93.10
2018-08-09T05:41:17.472Z,93.10
2018-08-09T05:43:46.647Z,93.00
2018-08-09T05:46:15.825Z,93.00
2018-08-09T05:48:45.007Z,92.80
2018-08-09T05:51:14.172Z,92.50
2018-08-09T05:53:43.340Z,92.40
2018-08-09T05:56:12.649Z,92.20
2018-08-09T05:58:41.770Z,91.90
2018-08-09T06:01:11.014Z,91.90
2018-08-09T06:03:40.160Z,91.60
2018-08-09T06:06:09.340Z,91.40
2018-08-09T06:08:38.497Z,91.30
2018-08-09T06:11:07.750Z,91.60
2018-08-09T06:13:36.921Z,91.40
2018-08-09T06:16:06.369Z,91.40
2018-08-09T06:18:35.565Z,91.60
2018-08-09T06:21:04.873Z,91.70
2018-08-09T06:23:34.041Z,92.30
2018-08-09T06:26:03.189Z,92.40
2018-08-09T06:28:32.335Z,92.50
2018-08-09T06:31:01.611Z,92.40
2018-08-09T06:33:31.205Z,92.10
2018-08-09T06:36:00.425Z,91.80
2018-08-09T06:38:29.656Z,91.10
2018-08-09T06:40:58.837Z,89.90
2018-08-09T06:43:28.028Z,88.70
2018-08-09T06:45:57.174Z,86.30
2018-08-09T06:48:26.355Z,85.20
2018-08-09T06:50:55.544Z,82.20
2018-08-09T06:53:24.668Z,81.60
2018-08-09T06:55:53.834Z,80.50
2018-08-09T06:58:22.987Z,78.90
2018-08-09T07:00:52.158Z,78.20
2018-08-09T07:03:21.412Z,76.30
2018-08-09T07:05:50.564Z,76.60
2018-08-09T07:08:19.689Z,75.00
2018-08-09T07:10:48.967Z,75.10
2018-08-09T07:13:18.098Z,73.40
2018-08-09T07:15:47.240Z,73.60
2018-08-09T07:18:16.408Z,73.20
2018-08-09T07:20:45.558Z,70.90
2018-08-09T07:23:14.700Z,69.70
2018-08-09T07:25:43.812Z,68.80
2018-08-09T07:28:12.954Z,67.00
2018-08-09T07:30:42.088Z,66.50
2018-08-09T07:33:11.278Z,66.30
2018-08-09T07:35:40.407Z,64.10
2018-08-09T07:38:09.626Z,62.00
2018-08-09T07:40:38.769Z,58.50
2018-08-09T07:43:07.954Z,56.70
2018-08-09T07:45:37.121Z,56.70
2018-08-09T07:48:06.284Z,55.50
2018-08-09T07:50:35.436Z,54.40
2018-08-09T07:53:04.633Z,54.20
2018-08-09T07:55:33.789Z,53.80
2018-08-09T07:58:02.962Z,53.20
2018-08-09T08:00:32.117Z,52.50
2018-08-09T08:03:01.367Z,51.40
2018-08-09T08:05:30.521Z,50.70
2018-08-09T08:07:59.659Z,50.20
2018-08-09T08:10:29.023Z,49.70
2018-08-09T08:12:58.213Z,49.10
2018-08-09T08:15:27.409Z,48.40
2018-08-09T08:17:56.569Z,47.60
2018-08-09T08:20:25.786Z,47.90
2018-08-09T08:22:54.923Z,48.00
2018-08-09T08:25:24.061Z,46.60
2018-08-09T08:27:53.205Z,47.80
2018-08-09T08:30:22.343Z,46.50
2018-08-09T08:32:51.502Z,46.90
2018-08-09T08:35:20.730Z,45.90
2018-08-09T08:37:49.847Z,44.50
2018-08-09T08:40:19.007Z,43.40
2018-08-09T08:42:48.142Z,44.30
2018-08-09T08:45:17.348Z,44.00
2018-08-09T08:47:46.553Z,44.80
2018-08-09T08:50:15.737Z,46.40
2018-08-09T08:52:45.561Z,46.10
2018-08-09T08:55:14.869Z,46.90
2018-08-09T08:57:43.964Z,48.20
2018-08-09T09:00:13.724Z,51.50
2018-08-09T09:02:42.925Z,54.40
2018-08-09T09:05:13.117Z,56.00
2018-08-09T09:07:42.285Z,57.30
2018-08-09T09:10:13.070Z,58.10
2018-08-09T09:12:42.367Z,59.80
2018-08-09T09:15:14.170Z,60.80
2018-08-09T09:17:44.373Z,61.60
2018-08-09T09:20:15.008Z,63.10
2018-08-09T09:22:45.311Z,63.90
2018-08-09T09:25:14.529Z,64.30
2018-08-09T09:27:43.871Z,64.50
2018-08-09T09:30:19.332Z,63.50
2018-08-09T09:32:48.569Z,63.20
2018-08-09T09:35:17.752Z,63.30
2018-08-09T09:37:46.915Z,63.70
2018-08-09T09:40:16.167Z,64.20
2018-08-09T09:42:45.440Z,64.30
2018-08-09T09:45:14.599Z,64.50
2018-08-09T09:47:43.777Z,63.00
2018-08-09T09:50:13.153Z,63.20
2018-08-09T09:52:42.758Z,62.50
2018-08-09T09:55:11.994Z,62.40
2018-08-09T09:57:41.166Z,61.60
2018-08-09T10:00:15.690Z,61.50
2018-08-09T10:02:45.381Z,60.90
2018-08-09T10:05:14.773Z,59.40
2018-08-09T10:07:43.904Z,59.40
2018-08-09T10:10:13.254Z,58.90
2018-08-09T10:12:42.932Z,58.80
2018-08-09T10:15:12.417Z,57.40
2018-08-09T10:17:41.612Z,58.80
2018-08-09T10:20:10.800Z,57.70
2018-08-09T10:22:39.942Z,58.70
2018-08-09T10:25:09.105Z,58.40
2018-08-09T10:27:38.221Z,58.30
2018-08-09T10:30:07.988Z,58.50
2018-08-09T10:32:37.285Z,57.40
2018-08-09T10:35:06.466Z,56.50
2018-08-09T10:37:35.624Z,56.40
2018-08-09T10:40:05.389Z,56.80
2018-08-09T10:42:34.545Z,57.40
2018-08-09T10:45:03.777Z,57.30
2018-08-09T10:47:33.231Z,56.80
2018-08-09T10:50:02.352Z,55.90
2018-08-09T10:52:31.736Z,55.20
2018-08-09T10:55:00.859Z,54.70
2018-08-09T10:57:30.070Z,54.60
2018-08-09T10:59:59.193Z,55.20
2018-08-09T11:02:28.339Z,54.40
2018-08-09T11:04:57.566Z,55.00
2018-08-09T11:07:26.859Z,55.40
2018-08-09T11:09:56.025Z,55.80
2018-08-09T11:12:25.174Z,56.00
2018-08-09T11:14:54.334Z,54.20
2018-08-09T11:17:23.430Z,53.90
2018-08-09T11:19:52.572Z,53.60
2018-08-09T11:22:21.707Z,54.80
2018-08-09T11:24:50.859Z,55.00
2018-08-09T11:27:20.057Z,55.10
2018-08-09T11:29:49.232Z,55.40
2018-08-09T11:32:18.346Z,54.50
2018-08-09T11:34:47.546Z,55.20
2018-08-09T11:37:16.690Z,56.00
2018-08-09T11:39:45.918Z,56.20
2018-08-09T11:42:15.057Z,54.20
2018-08-09T11:44:44.241Z,55.00
2018-08-09T11:47:13.350Z,53.40
2018-08-09T11:49:42.456Z,53.00
2018-08-09T11:52:11.624Z,53.70
2018-08-09T11:54:40.818Z,53.20
2018-08-09T11:57:09.967Z,52.20
2018-08-09T11:59:39.220Z,53.00
2018-08-09T12:02:09.566Z,53.70
2018-08-09T12:04:45.279Z,53.20
2018-08-09T12:07:14.579Z,51.00
2018-08-09T12:09:43.616Z,51.60
2018-08-09T12:12:12.784Z,51.50
2018-08-09T12:14:42.010Z,52.00
2018-08-09T12:17:11.130Z,52.90
2018-08-09T12:19:40.301Z,52.30
2018-08-09T12:22:09.414Z,53.10
2018-08-09T12:24:38.585Z,49.20
2018-08-09T12:27:07.789Z,49.90
2018-08-09T12:29:36.906Z,48.70
2018-08-09T12:32:06.804Z,49.10
2018-08-09T12:34:35.946Z,49.00
2018-08-09T12:37:05.170Z,49.10
2018-08-09T12:39:34.286Z,49.20
2018-08-09T12:42:03.503Z,47.10
2018-08-09T12:44:32.705Z,47.10
2018-08-09T12:47:01.881Z,48.70
2018-08-09T12:49:31.092Z,48.70
2018-08-09T12:52:00.347Z,48.50
2018-08-09T12:54:29.497Z,45.50
2018-08-09T12:56:58.657Z,45.30
2018-08-09T12:59:27.865Z,43.60
2018-08-09T13:01:57.090Z,40.90
2018-08-09T13:04:27.297Z,40.90
2018-08-09T13:06:56.478Z,40.80
2018-08-09T13:09:25.682Z,41.20
2018-08-09T13:11:54.913Z,43.20
2018-08-09T13:14:24.103Z,41.10
2018-08-09T13:16:53.313Z,41.00
2018-08-09T13:19:22.493Z,40.60
2018-08-09T13:21:51.696Z,41.70
2018-08-09T13:24:20.872Z,42.00
2018-08-09T13:26:50.118Z,44.50
2018-08-09T13:29:19.281Z,42.80
2018-08-09T13:31:48.450Z,42.40
2018-08-09T13:34:17.649Z,49.10
2018-08-09T13:36:46.996Z,53.20
2018-08-09T13:39:16.133Z,56.80
2018-08-09T13:41:45.985Z,58.90
2018-08-09T13:44:15.180Z,60.00
2018-08-09T13:46:44.502Z,61.40
2018-08-09T13:49:13.583Z,64.60
2018-08-09T13:51:42.737Z,67.40
2018-08-09T13:54:11.894Z,68.40
2018-08-09T13:56:41.074Z,70.00
2018-08-09T13:59:10.257Z,72.30
2018-08-09T14:01:39.704Z,74.10
2018-08-09T14:04:08.993Z,75.90
2018-08-09T14:06:38.154Z,76.70
2018-08-09T14:09:10.038Z,75.80
2018-08-09T14:11:39.438Z,76.10
2018-08-09T14:14:08.566Z,76.30
2018-08-09T14:16:38.332Z,77.00
2018-08-09T14:19:07.734Z,76.50
2018-08-09T14:21:36.973Z,76.90
2018-08-09T14:24:06.435Z,76.70
2018-08-09T14:26:35.641Z,77.40
2018-08-09T14:29:05.924Z,77.20
2018-08-09T14:31:35.382Z,75.20
2018-08-09T14:34:04.727Z,74.00
2018-08-09T14:36:33.905Z,73.00
2018-08-09T14:39:03.455Z,72.30
2018-08-09T14:41:32.576Z,72.90
2018-08-09T14:44:01.694Z,72.10
2018-08-09T14:46:31.816Z,72.00
2018-08-09T14:49:00.928Z,72.40
2018-08-09T14:51:30.198Z,71.80
2018-08-09T14:53:59.487Z,72.40
2018-08-09T14:56:28.690Z,72.40
2018-08-09T14:58:57.959Z,73.20
2018-08-09T15:01:27.301Z,73.20
2018-08-09T15:03:56.617Z,73.20
2018-08-09T15:06:25.887Z,73.50
2018-08-09T15:08:55.086Z,73.90
2018-08-09T15:11:24.441Z,73.70
2018-08-09T15:13:53.621Z,74.00
2018-08-09T15:16:22.809Z,74.30
2018-08-09T15:18:52.024Z,74.50
2018-08-09T15:21:21.225Z,74.80
2018-08-09T15:23:50.418Z,75.00
2018-08-09T15:26:19.619Z,75.20
2018-08-09T15:28:48.823Z,75.00
2018-08-09T15:31:18.122Z,75.10
2018-08-09T15:33:47.301Z,74.90
2018-08-09T15:36:16.449Z,74.90
2018-08-09T15:38:45.650Z,74.70
2018-08-09T15:41:14.779Z,75.40
2018-08-09T15:43:44.025Z,76.20
2018-08-09T15:46:13.210Z,75.60
2018-08-09T15:48:42.426Z,75.60
2018-08-09T15:51:11.609Z,75.50
2018-08-09T15:53:40.793Z,76.10
2018-08-09T15:56:09.958Z,76.20
2018-08-09T15:58:39.175Z,76.30
2018-08-09T16:01:08.714Z,76.30
2018-08-09T16:03:37.954Z,76.10
2018-08-09T16:06:07.152Z,76.20
2018-08-09T16:08:36.314Z,76.40
2018-08-09T16:11:05.546Z,76.70
2018-08-09T16:13:34.691Z,76.40
2018-08-09T16:16:04.960Z,76.20
2018-08-09T16:18:34.213Z,75.70
2018-08-09T16:21:03.571Z,75.80
2018-08-09T16:23:32.818Z,76.10
2018-08-09T16:26:02.049Z,76.40
2018-08-09T16:28:31.264Z,76.80
2018-08-09T16:31:00.491Z,77.10
2018-08-09T16:33:29.730Z,77.00
2018-08-09T16:35:58.996Z,77.30
2018-08-09T16:38:28.340Z,77.10
2018-08-09T16:40:57.551Z,77.40
2018-08-09T16:43:26.849Z,77.60
2018-08-09T16:45:56.395Z,78.00
2018-08-09T16:48:26.033Z,77.70
2018-08-09T16:50:55.317Z,76.90
2018-08-09T16:53:24.742Z,76.60
2018-08-09T16:55:53.870Z,76.20
2018-08-09T16:58:23.030Z,75.30
2018-08-09T17:00:52.199Z,74.20
2018-08-09T17:03:21.329Z,71.10
2018-08-09T17:05:50.515Z,71.00
2018-08-09T17:08:19.720Z,69.90
2018-08-09T17:10:49.257Z,69.30
2018-08-09T17:13:18.452Z,68.70
2018-08-09T17:15:47.981Z,68.60
2018-08-09T17:18:17.263Z,69.00
2018-08-09T17:20:46.551Z,68.60
2018-08-09T17:23:15.722Z,70.00
2018-08-09T17:25:44.936Z,70.40
2018-08-09T17:28:15.382Z,71.20
2018-08-09T17:30:44.528Z,71.00
2018-08-09T17:33:13.781Z,73.50
2018-08-09T17:35:42.999Z,73.80
2018-08-09T17:38:12.201Z,76.20
2018-08-09T17:40:42.165Z,75.40
2018-08-09T17:43:11.342Z,75.90
2018-08-09T17:45:40.543Z,77.00
2018-08-09T17:48:09.769Z,77.20
2018-08-09T17:50:38.975Z,78.90
2018-08-09T17:53:08.876Z,80.10
2018-08-09T17:55:38.134Z,81.10
2018-08-09T17:58:07.454Z,81.90
2018-08-09T18:00:36.766Z,82.00
2018-08-09T18:03:06.008Z,84.40
2018-08-09T18:05:35.294Z,80.40
2018-08-09T18:08:04.643Z,81.80
2018-08-09T18:10:35.264Z,81.00
2018-08-09T18:13:04.457Z,81.80
2018-08-09T18:15:33.711Z,82.50
2018-08-09T18:18:03.325Z,81.30
2018-08-09T18:20:35.037Z,81.50
2018-08-09T18:23:04.288Z,80.70
2018-08-09T18:25:33.568Z,80.30
2018-08-09T18:28:02.791Z,81.10
2018-08-09T18:30:32.073Z,81.80
2018-08-09T18:33:01.297Z,81.90
2018-08-09T18:35:30.528Z,82.50
2018-08-09T18:37:59.745Z,81.80
2018-08-09T18:40:29.386Z,82.00
2018-08-09T18:42:58.893Z,80.50
2018-08-09T18:45:28.716Z,80.80
2018-08-09T18:47:57.978Z,81.10
2018-08-09T18:50:29.401Z,81.10
2018-08-09T18:52:58.729Z,79.90
2018-08-09T18:55:27.931Z,79.90
2018-08-09T18:57:57.167Z,79.70
2018-08-09T19:00:28.138Z,79.70
2018-08-09T19:02:57.591Z,80.00
2018-08-09T19:05:27.134Z,79.30
2018-08-09T19:07:56.426Z,79.50
2018-08-09T19:10:27.601Z,79.20
2018-08-09T19:12:56.839Z,79.80
2018-08-09T19:15:26.875Z,79.80
2018-08-09T19:17:56.314Z,79.20
2018-08-09T19:20:28.064Z,78.10
2018-08-09T19:22:57.962Z,77.90
2018-08-09T19:25:27.242Z,78.70
2018-08-09T19:27:56.575Z,78.50
2018-08-09T19:30:27.796Z,78.50
2018-08-09T19:32:57.171Z,78.50
2018-08-09T19:35:26.462Z,80.10
2018-08-09T19:37:55.685Z,79.50
2018-08-09T19:40:28.270Z,79.90
2018-08-09T19:42:57.475Z,80.10
2018-08-09T19:45:26.830Z,79.80
2018-08-09T19:47:56.117Z,80.60
2018-08-09T19:50:25.828Z,80.70
2018-08-09T19:52:55.048Z,80.60
2018-08-09T19:55:25.636Z,81.10
2018-08-09T19:57:54.892Z,81.40
2018-08-09T20:00:25.472Z,80.50
2018-08-09T20:02:54.755Z,81.10
2018-08-09T20:05:24.366Z,80.90
2018-08-09T20:07:53.701Z,80.70
2018-08-09T20:10:22.998Z,80.70
2018-08-09T20:12:52.245Z,81.10
2018-08-09T20:15:23.511Z,80.70
2018-08-09T20:17:52.771Z,80.60
2018-08-09T20:20:23.539Z,80.50
2018-08-09T20:22:52.837Z,80.40
2018-08-09T20:25:47.216Z,80.40
2018-08-09T20:28:16.390Z,80.00
2018-08-09T20:30:45.611Z,80.40
2018-08-09T20:33:14.819Z,80.30
2018-08-09T20:35:44.707Z,80.50
2018-08-09T20:38:15.150Z,80.80
2018-08-09T20:40:44.405Z,80.80
2018-08-09T20:43:13.632Z,80.80
2018-08-09T20:45:42.839Z,81.00
2018-08-09T20:48:12.062Z,80.60
2018-08-09T20:50:41.266Z,80.90
2018-08-09T20:53:10.540Z,81.00
2018-08-09T20:55:39.843Z,80.40
2018-08-09T20:58:09.060Z,80.50
2018-08-09T21:00:38.225Z,80.50
2018-08-09T21:03:07.482Z,80.70
2018-08-09T21:05:37.989Z,80.60
2018-08-09T21:08:07.479Z,80.90
2018-08-09T21:10:36.690Z,80.60
2018-08-09T21:13:05.976Z,80.60
2018-08-09T21:15:35.206Z,80.90
2018-08-09T21:18:04.465Z,81.00
2018-08-09T21:20:33.656Z,80.60
2018-08-09T21:23:02.826Z,80.60
2018-08-09T21:25:32.092Z,80.70
2018-08-09T21:28:01.235Z,80.90
2018-08-09T21:30:30.474Z,80.80
2018-08-09T21:32:59.680Z,81.20
2018-08-09T21:35:28.947Z,80.80
2018-08-09T21:37:58.124Z,80.80
2018-08-09T21:40:27.298Z,80.40
2018-08-09T21:42:56.508Z,80.10
2018-08-09T21:45:25.682Z,80.10
2018-08-09T21:47:54.827Z,79.90
2018-08-09T21:50:24.047Z,80.00
2018-08-09T21:52:53.212Z,80.20
2018-08-09T21:55:22.390Z,79.80
2018-08-09T21:57:51.554Z,79.60
2018-08-09T22:01:00.606Z,79.00
2018-08-09T22:03:31.947Z,78.80
2018-08-09T22:06:06.412Z,79.10
2018-08-09T22:09:40.680Z,78.60
2018-08-09T22:12:15.227Z,79.00
2018-08-09T22:14:49.646Z,78.30
2018-08-09T22:17:24.172Z,79.00
2018-08-09T22:19:58.579Z,78.80
2018-08-09T22:22:27.961Z,78.40
2018-08-09T22:24:57.142Z,78.50
2018-08-09T22:27:26.381Z,78.70
2018-08-09T22:29:55.534Z,78.70
2018-08-09T22:32:24.992Z,77.80
2018-08-09T22:34:54.186Z,78.10
2018-08-09T22:37:23.318Z,77.60
2018-08-09T22:39:52.588Z,77.70
2018-08-09T22:42:22.053Z,77.00
2018-08-09T22:44:51.370Z,76.80
2018-08-09T22:47:20.603Z,76.80
2018-08-09T22:49:49.937Z,77.20
2018-08-09T22:52:19.230Z,77.40
2018-08-09T22:54:48.469Z,77.40
2018-08-09T22:57:17.664Z,77.90
2018-08-09T22:59:46.981Z,77.40
2018-08-09T23:02:16.212Z,77.30
2018-08-09T23:04:45.362Z,77.40
2018-08-09T23:07:14.610Z,77.50
2018-08-09T23:09:43.866Z,77.10
2018-08-09T23:12:13.196Z,77.60
2018-08-09T23:14:42.486Z,78.00
2018-08-09T23:17:11.988Z,77.90
2018-08-09T23:19:41.361Z,77.80
2018-08-09T23:22:11.026Z,77.80
2018-08-09T23:24:40.297Z,77.70
2018-08-09T23:27:09.463Z,77.40
2018-08-09T23:29:38.644Z,77.60
2018-08-09T23:32:07.900Z,78.10
2018-08-09T23:34:37.186Z,78.50
2018-08-09T23:37:06.454Z,78.90
2018-08-09T23:39:35.744Z,79.40
2018-08-09T23:42:05.001Z,79.50
2018-08-09T23:44:34.234Z,80.00
2018-08-09T23:47:03.413Z,79.80
2018-08-09T23:49:32.625Z,79.20
2018-08-09T23:52:01.856Z,79.00
2018-08-09T23:54:31.005Z,80.10
2018-08-09T23:57:00.947Z,79.20
2018-08-09T23:59:30.158Z,78.90
